createdAt,value
2022-08-16T00:02:24.351Z,20.10
2022-08-16T00:04:52.967Z,20.10
2022-08-16T00:07:21.248Z,20.00
2022-08-16T00:09:49.957Z,20.00
2022-08-16T00:12:22.033Z,20.00
2022-08-16T00:14:56.840Z,19.90
2022-08-16T00:17:25.918Z,19.90
2022-08-16T00:19:55.292Z,19.90
2022-08-16T00:22:24.854Z,19.90
2022-08-16T00:24:54.823Z,19.80
2022-08-16T00:27:24.728Z,19.80
2022-08-16T00:30:00.752Z,19.80
2022-08-16T00:32:38.380Z,19.80
2022-08-16T00:35:11.035Z,19.80
2022-08-16T00:37:58.849Z,19.70
2022-08-16T00:40:36.581Z,19.70
2022-08-16T00:43:12.118Z,19.60
2022-08-16T00:45:59.990Z,19.60
2022-08-16T00:48:43.849Z,19.60
2022-08-16T00:51:16.166Z,19.60
2022-08-16T00:53:46.221Z,19.50
2022-08-16T00:56:57.049Z,19.50
2022-08-16T00:59:12.219Z,19.50
2022-08-16T01:01:45.774Z,19.40
2022-08-16T01:04:29.585Z,19.40
2022-08-16T01:07:02.434Z,19.40
2022-08-16T01:09:33.534Z,19.30
2022-08-16T01:12:02.925Z,19.30
2022-08-16T01:14:36.751Z,19.30
2022-08-16T01:17:08.412Z,19.30
2022-08-16T01:19:41.276Z,19.30
2022-08-16T01:22:46.928Z,19.20
2022-08-16T01:25:10.888Z,19.20
2022-08-16T01:27:46.199Z,19.20
2022-08-16T01:30:19.964Z,19.20
2022-08-16T01:33:01.566Z,19.20
2022-08-16T01:35:36.519Z,19.20
2022-08-16T01:38:20.802Z,19.20
2022-08-16T01:40:52.044Z,19.20
2022-08-16T01:43:21.066Z,19.20
2022-08-16T01:45:57.622Z,19.30
2022-08-16T01:48:28.767Z,19.30
2022-08-16T01:51:09.608Z,19.20
2022-08-16T01:53:45.348Z,19.20
2022-08-16T01:56:26.706Z,19.30
2022-08-16T01:58:57.182Z,19.20
2022-08-16T02:01:28.113Z,19.20
2022-08-16T02:03:58.457Z,19.20
2022-08-16T02:06:45.938Z,19.30
2022-08-16T02:09:17.855Z,19.20
2022-08-16T02:11:53.152Z,19.30
2022-08-16T02:14:26.625Z,19.30
2022-08-16T02:16:56.483Z,19.20
2022-08-16T02:19:59.561Z,19.30
2022-08-16T02:22:33.632Z,19.30
2022-08-16T02:25:06.860Z,19.20
2022-08-16T02:27:39.750Z,19.20
2022-08-16T02:30:35.711Z,19.30
2022-08-16T02:33:04.012Z,19.20
2022-08-16T02:35:33.441Z,19.20
2022-08-16T02:38:08.792Z,19.20
2022-08-16T02:40:37.968Z,19.20
2022-08-16T02:43:08.075Z,19.20
2022-08-16T02:45:36.569Z,19.20
2022-08-16T02:48:28.376Z,19.20
2022-08-16T02:51:06.256Z,19.20
2022-08-16T02:53:43.331Z,19.20
2022-08-16T02:56:14.824Z,19.10
2022-08-16T02:58:45.594Z,19.20
2022-08-16T03:01:24.559Z,19.10
2022-08-16T03:04:49.655Z,19.10
2022-08-16T03:06:56.310Z,19.10
2022-08-16T03:09:25.663Z,19.10
2022-08-16T03:11:57.422Z,19.10
2022-08-16T03:14:28.945Z,19.10
2022-08-16T03:16:59.256Z,19.10
2022-08-16T03:19:47.876Z,19.10
2022-08-16T03:22:19.447Z,19.00
2022-08-16T03:25:00.860Z,19.00
2022-08-16T03:27:33.085Z,19.00
2022-08-16T03:30:16.192Z,19.00
2022-08-16T03:32:47.970Z,19.00
2022-08-16T03:35:21.778Z,19.00
2022-08-16T03:38:02.051Z,18.90
2022-08-16T03:40:33.563Z,18.90
2022-08-16T03:43:20.518Z,18.80
2022-08-16T03:45:52.667Z,18.80
2022-08-16T03:48:36.887Z,18.80
2022-08-16T03:51:12.513Z,18.70
2022-08-16T03:53:42.689Z,18.70
2022-08-16T03:56:19.511Z,18.70
2022-08-16T03:58:52.570Z,18.70
2022-08-16T04:01:24.426Z,18.60
2022-08-16T04:03:57.868Z,18.60
2022-08-16T04:06:26.189Z,18.60
2022-08-16T04:08:54.991Z,18.60
2022-08-16T04:11:23.671Z,18.60
2022-08-16T04:14:01.250Z,18.60
2022-08-16T04:16:42.459Z,18.60
2022-08-16T04:19:11.491Z,18.50
2022-08-16T04:21:47.605Z,18.50
2022-08-16T04:24:16.679Z,18.50
2022-08-16T04:26:46.064Z,18.50
2022-08-16T04:29:23.811Z,18.40
2022-08-16T04:31:56.327Z,18.40
2022-08-16T04:34:27.702Z,18.40
2022-08-16T04:36:57.812Z,18.40
2022-08-16T04:39:45.818Z,18.40
2022-08-16T04:42:15.139Z,18.40
2022-08-16T04:44:53.838Z,18.30
2022-08-16T04:47:31.438Z,18.30
2022-08-16T04:50:01.627Z,18.20
2022-08-16T04:52:35.260Z,18.10
2022-08-16T04:55:08.022Z,18.10
2022-08-16T04:57:37.396Z,18.00
2022-08-16T05:00:31.734Z,18.00
2022-08-16T05:03:07.247Z,18.00
2022-08-16T05:05:45.223Z,18.00
2022-08-16T05:08:28.278Z,18.10
2022-08-16T05:11:00.670Z,18.00
2022-08-16T05:13:40.077Z,18.00
2022-08-16T05:16:19.680Z,18.00
2022-08-16T05:18:52.446Z,18.00
2022-08-16T05:21:22.125Z,18.00
2022-08-16T05:23:51.548Z,18.10
2022-08-16T05:26:27.786Z,18.10
2022-08-16T05:28:57.878Z,18.10
2022-08-16T05:31:29.583Z,18.10
2022-08-16T05:34:03.128Z,18.10
2022-08-16T05:36:36.631Z,18.10
2022-08-16T05:39:07.820Z,18.10
2022-08-16T05:41:44.618Z,18.10
2022-08-16T05:44:23.756Z,18.10
2022-08-16T05:46:55.888Z,18.10
2022-08-16T05:49:39.906Z,18.10
2022-08-16T05:52:10.581Z,18.10
2022-08-16T05:54:46.722Z,18.10
2022-08-16T05:57:17.062Z,18.10
2022-08-16T05:59:50.280Z,18.10
2022-08-16T06:02:19.585Z,18.00
2022-08-16T06:04:49.272Z,18.00
2022-08-16T06:07:24.985Z,18.00
2022-08-16T06:09:59.842Z,18.00
2022-08-16T06:12:29.478Z,18.00
2022-08-16T06:15:00.029Z,18.00
2022-08-16T06:17:41.774Z,18.00
2022-08-16T06:20:18.561Z,18.00
2022-08-16T06:22:58.913Z,18.00
2022-08-16T06:25:35.798Z,18.00
2022-08-16T06:28:10.322Z,18.10
2022-08-16T06:30:45.904Z,18.10
2022-08-16T06:33:22.392Z,18.00
2022-08-16T06:35:55.318Z,18.00
2022-08-16T06:38:33.069Z,18.10
2022-08-16T06:41:05.609Z,18.10
2022-08-16T06:43:35.430Z,18.20
2022-08-16T06:46:10.700Z,18.30
2022-08-16T06:48:42.644Z,18.40
2022-08-16T06:51:14.805Z,18.40
2022-08-16T06:53:43.519Z,18.40
2022-08-16T06:56:14.919Z,18.40
2022-08-16T06:58:53.082Z,18.40
2022-08-16T07:01:46.279Z,18.30
2022-08-16T07:04:12.106Z,18.40
2022-08-16T07:06:43.469Z,18.30
2022-08-16T07:09:12.966Z,18.30
2022-08-16T07:11:45.925Z,18.20
2022-08-16T07:14:23.657Z,18.20
2022-08-16T07:16:57.897Z,18.20
2022-08-16T07:20:02.050Z,18.20
2022-08-16T07:22:37.226Z,18.20
2022-08-16T07:25:07.915Z,18.30
2022-08-16T07:27:37.507Z,18.30
2022-08-16T07:30:45.177Z,18.30
2022-08-16T07:32:57.448Z,18.30
2022-08-16T07:35:26.782Z,18.30
2022-08-16T07:37:56.472Z,18.40
2022-08-16T07:40:56.361Z,18.40
2022-08-16T07:43:14.456Z,18.40
2022-08-16T07:45:46.228Z,18.50
2022-08-16T07:48:24.558Z,18.40
2022-08-16T07:50:56.185Z,18.40
2022-08-16T07:53:29.292Z,18.40
2022-08-16T07:55:58.027Z,18.40
2022-08-16T07:58:33.773Z,18.40
2022-08-16T08:01:10.459Z,18.40
2022-08-16T08:03:48.225Z,18.40
2022-08-16T08:06:28.710Z,18.50
2022-08-16T08:08:59.346Z,18.50
2022-08-16T08:11:29.508Z,18.50
2022-08-16T08:14:03.296Z,18.50
2022-08-16T08:16:33.591Z,18.50
2022-08-16T08:19:04.655Z,18.60
2022-08-16T08:22:00.306Z,18.60
2022-08-16T08:24:31.968Z,18.60
2022-08-16T08:27:02.126Z,18.60
2022-08-16T08:29:37.221Z,18.60
2022-08-16T08:32:58.123Z,18.70
2022-08-16T08:35:03.294Z,18.70
2022-08-16T08:37:33.426Z,18.70
2022-08-16T08:40:24.532Z,18.60
2022-08-16T08:43:00.332Z,18.60
2022-08-16T08:45:47.951Z,18.60
2022-08-16T08:48:33.899Z,18.60
2022-08-16T08:51:04.450Z,18.70
2022-08-16T08:53:33.679Z,18.70
2022-08-16T08:56:23.123Z,18.70
2022-08-16T08:58:54.708Z,18.80
2022-08-16T09:01:36.891Z,18.80
2022-08-16T09:04:14.450Z,18.80
2022-08-16T09:06:53.763Z,18.80
2022-08-16T09:09:22.194Z,18.80
2022-08-16T09:12:03.884Z,18.80
2022-08-16T09:14:35.875Z,18.80
2022-08-16T09:17:17.634Z,18.90
2022-08-16T09:19:57.214Z,19.00
2022-08-16T09:22:28.199Z,19.10
2022-08-16T09:25:09.593Z,19.20
2022-08-16T09:27:56.450Z,19.20
2022-08-16T09:30:34.749Z,19.30
2022-08-16T09:33:12.938Z,19.40
2022-08-16T09:35:42.496Z,19.50
2022-08-16T09:38:31.426Z,19.50
2022-08-16T09:41:02.104Z,19.60
2022-08-16T09:43:58.467Z,19.70
2022-08-16T09:46:44.795Z,19.70
2022-08-16T09:49:12.319Z,19.80
2022-08-16T09:51:41.393Z,19.80
2022-08-16T09:54:16.641Z,19.90
2022-08-16T09:56:52.805Z,19.90
2022-08-16T09:59:25.205Z,19.90
2022-08-16T10:01:55.445Z,19.90
2022-08-16T10:04:31.192Z,20.00
2022-08-16T10:07:14.984Z,20.00
2022-08-16T10:09:54.388Z,20.10
2022-08-16T10:12:43.610Z,20.10
2022-08-16T10:15:17.069Z,20.10
2022-08-16T10:18:01.053Z,20.20
2022-08-16T10:20:32.650Z,20.20
2022-08-16T10:23:07.517Z,20.20
2022-08-16T10:27:16.444Z,20.10
2022-08-16T10:28:32.369Z,20.10
2022-08-16T10:31:14.519Z,20.00
2022-08-16T10:33:46.194Z,20.10
2022-08-16T10:36:38.878Z,20.10
2022-08-16T10:39:04.428Z,20.10
2022-08-16T10:41:33.039Z,20.10
2022-08-16T10:44:01.381Z,20.20
2022-08-16T10:46:39.379Z,20.10
2022-08-16T10:49:11.292Z,20.20
2022-08-16T10:52:02.904Z,20.30
2022-08-16T10:54:29.423Z,20.30
2022-08-16T10:56:59.126Z,20.30
2022-08-16T10:59:38.494Z,20.40
2022-08-16T11:02:58.531Z,20.30
2022-08-16T11:05:08.396Z,20.40
2022-08-16T11:07:52.237Z,20.40
2022-08-16T11:19:05.972Z,20.40
2022-08-16T11:24:41.633Z,20.40
2022-08-16T11:27:24.159Z,20.30
2022-08-16T11:30:01.229Z,20.30
2022-08-16T11:32:33.518Z,20.30
2022-08-16T11:35:10.762Z,20.20
2022-08-16T11:40:38.856Z,20.20
2022-08-16T11:43:10.228Z,20.20
2022-08-16T11:45:39.062Z,20.20
2022-08-16T11:48:10.971Z,20.30
2022-08-16T11:50:41.436Z,20.30
2022-08-16T11:53:10.427Z,20.20
2022-08-16T11:55:40.629Z,20.20
2022-08-16T11:58:14.362Z,20.20
2022-08-16T12:00:51.260Z,20.10
2022-08-16T12:03:26.486Z,20.10
2022-08-16T12:06:10.954Z,20.10
2022-08-16T12:08:41.333Z,20.10
2022-08-16T12:11:11.897Z,20.10
2022-08-16T12:13:40.735Z,20.00
2022-08-16T12:16:09.946Z,20.00
2022-08-16T12:18:39.757Z,20.00
2022-08-16T12:21:09.674Z,20.00
2022-08-16T12:23:38.294Z,19.90
2022-08-16T12:26:10.439Z,19.90
2022-08-16T12:28:54.079Z,20.00
2022-08-16T12:31:24.137Z,20.00
2022-08-16T12:33:54.192Z,20.00
2022-08-16T12:36:26.256Z,20.00
2022-08-16T12:38:59.068Z,20.10
2022-08-16T12:41:29.174Z,20.00
2022-08-16T12:44:03.594Z,20.10
2022-08-16T12:46:32.533Z,20.10
2022-08-16T12:49:01.286Z,20.10
2022-08-16T12:51:59.577Z,20.20
2022-08-16T12:54:23.258Z,20.30
2022-08-16T12:56:51.706Z,20.40
2022-08-16T12:59:21.967Z,20.50
2022-08-16T13:01:58.067Z,20.50
2022-08-16T13:04:28.095Z,20.60
2022-08-16T13:07:04.763Z,20.60
2022-08-16T13:09:46.762Z,20.60
2022-08-16T13:12:20.114Z,20.70
2022-08-16T13:14:50.358Z,20.60
2022-08-16T13:17:26.261Z,20.60
2022-08-16T13:20:13.763Z,20.60
2022-08-16T13:22:46.245Z,20.60
2022-08-16T13:25:21.215Z,20.60
2022-08-16T13:28:02.215Z,20.60
2022-08-16T13:30:35.948Z,20.60
2022-08-16T13:33:12.186Z,20.70
2022-08-16T13:35:43.125Z,20.70
2022-08-16T13:38:24.287Z,20.80
2022-08-16T13:40:55.923Z,20.80
2022-08-16T13:43:26.400Z,20.80
2022-08-16T13:45:56.023Z,20.80
2022-08-16T13:48:25.917Z,20.80
2022-08-16T13:50:56.228Z,20.80
2022-08-16T13:53:28.343Z,20.90
2022-08-16T13:55:58.912Z,20.90
2022-08-16T13:58:37.513Z,21.00
2022-08-16T14:01:18.443Z,21.00
2022-08-16T14:03:47.470Z,21.00
2022-08-16T14:06:18.583Z,21.10
2022-08-16T14:08:50.334Z,21.20
2022-08-16T14:11:29.097Z,21.30
2022-08-16T14:13:59.815Z,21.30
2022-08-16T14:16:33.747Z,21.40
2022-08-16T14:19:03.755Z,21.50
2022-08-16T14:21:35.561Z,21.50
2022-08-16T14:24:12.773Z,21.60
2022-08-16T14:26:51.115Z,21.70
2022-08-16T14:29:21.974Z,21.80
2022-08-16T14:31:53.887Z,21.80
2022-08-16T14:34:25.694Z,21.80
2022-08-16T14:36:55.266Z,21.80
2022-08-16T14:39:25.313Z,21.70
2022-08-16T14:41:55.872Z,21.70
2022-08-16T14:44:26.315Z,21.70
2022-08-16T14:46:56.848Z,21.80
2022-08-16T14:49:25.349Z,21.70
2022-08-16T14:51:53.773Z,21.70
2022-08-16T14:54:23.483Z,21.60
2022-08-16T14:56:59.139Z,21.60
2022-08-16T14:59:27.778Z,21.50
2022-08-16T15:02:00.776Z,21.40
2022-08-16T15:04:39.203Z,21.30
2022-08-16T15:07:11.226Z,21.20
2022-08-16T15:09:43.815Z,21.10
2022-08-16T15:12:26.998Z,21.00
2022-08-16T15:14:59.971Z,20.90
2022-08-16T15:17:33.990Z,20.90
2022-08-16T15:20:08.794Z,20.80
2022-08-16T15:22:40.076Z,20.70
2022-08-16T15:25:12.206Z,20.70
2022-08-16T15:27:43.607Z,20.70
2022-08-16T15:30:48.191Z,20.70
2022-08-16T15:33:03.750Z,20.70
2022-08-16T15:35:33.564Z,20.70
2022-08-16T15:38:08.872Z,20.80
2022-08-16T15:40:57.728Z,20.70
2022-08-16T15:43:39.266Z,20.70
2022-08-16T15:46:54.295Z,20.70
2022-08-16T15:49:13.340Z,20.70
2022-08-16T15:51:43.531Z,20.60
2022-08-16T15:54:28.897Z,20.70
2022-08-16T15:57:03.029Z,20.60
2022-08-16T15:59:48.826Z,20.60
2022-08-16T16:02:27.510Z,20.60
2022-08-16T16:05:00.521Z,20.60
2022-08-16T16:07:30.351Z,20.60
2022-08-16T16:09:59.454Z,20.60
2022-08-16T16:12:51.044Z,20.60
2022-08-16T16:15:20.333Z,20.60
2022-08-16T16:17:52.503Z,20.60
2022-08-16T16:20:21.900Z,20.60
2022-08-16T16:22:53.699Z,20.50
2022-08-16T16:25:22.272Z,20.60
2022-08-16T16:27:55.556Z,20.50
2022-08-16T16:30:37.695Z,20.60
2022-08-16T16:33:20.599Z,20.50
2022-08-16T16:35:55.369Z,20.50
2022-08-16T16:38:29.001Z,20.50
2022-08-16T16:40:57.895Z,20.50
2022-08-16T16:43:31.925Z,20.50
2022-08-16T16:46:05.847Z,20.50
2022-08-16T16:48:52.578Z,20.40
2022-08-16T16:51:21.967Z,20.40
2022-08-16T16:53:55.795Z,20.40
2022-08-16T16:56:31.391Z,20.40
2022-08-16T16:59:04.596Z,20.40
2022-08-16T17:01:57.424Z,20.40
2022-08-16T17:04:32.345Z,20.40
2022-08-16T17:07:03.787Z,20.30
2022-08-16T17:09:40.352Z,20.40
2022-08-16T17:12:09.442Z,20.30
2022-08-16T17:14:38.458Z,20.30
2022-08-16T17:17:09.293Z,20.30
2022-08-16T17:19:41.302Z,20.30
2022-08-16T17:22:14.079Z,20.30
2022-08-16T17:24:44.977Z,20.30
2022-08-16T17:27:17.665Z,20.30
2022-08-16T17:29:47.608Z,20.30
2022-08-16T17:32:34.227Z,20.30
2022-08-16T17:35:18.176Z,20.20
2022-08-16T17:37:51.679Z,20.30
2022-08-16T17:40:37.266Z,20.20
2022-08-16T17:43:12.661Z,20.30
2022-08-16T17:45:41.928Z,20.30
2022-08-16T17:48:12.148Z,20.30
2022-08-16T17:50:43.316Z,20.30
2022-08-16T17:53:13.766Z,20.30
2022-08-16T17:55:44.765Z,20.30
2022-08-16T17:58:22.214Z,20.20
2022-08-16T18:00:52.546Z,20.20
2022-08-16T18:04:07.752Z,20.20
2022-08-16T18:06:18.682Z,20.20
2022-08-16T18:08:48.859Z,20.20
2022-08-16T18:11:26.115Z,20.10
2022-08-16T18:13:55.714Z,20.20
2022-08-16T18:16:24.252Z,20.10
2022-08-16T18:18:54.260Z,20.10
2022-08-16T18:21:40.598Z,20.10
2022-08-16T18:24:09.465Z,20.10
2022-08-16T18:26:38.482Z,20.10
2022-08-16T18:29:07.348Z,20.00
2022-08-16T18:31:36.239Z,20.00
2022-08-16T18:34:10.231Z,19.90
2022-08-16T18:36:38.588Z,19.90
2022-08-16T18:39:07.089Z,19.90
2022-08-16T18:41:38.000Z,19.80
2022-08-16T18:44:25.328Z,19.80
2022-08-16T18:46:55.541Z,19.70
2022-08-16T18:49:25.386Z,19.70
2022-08-16T18:51:58.426Z,19.70
2022-08-16T18:54:28.297Z,19.60
2022-08-16T18:56:58.244Z,19.60
2022-08-16T18:59:28.604Z,19.60
2022-08-16T19:02:00.079Z,19.60
2022-08-16T19:04:55.499Z,19.50
2022-08-16T19:07:30.894Z,19.50
2022-08-16T19:10:01.039Z,19.50
2022-08-16T19:12:37.803Z,19.50
2022-08-16T19:15:14.410Z,19.50
2022-08-16T19:17:45.494Z,19.50
2022-08-16T19:20:17.267Z,19.40
2022-08-16T19:23:04.959Z,19.50
2022-08-16T19:25:48.332Z,19.40
2022-08-16T19:28:50.848Z,19.40
2022-08-16T19:31:15.071Z,19.40
2022-08-16T19:33:47.222Z,19.40
2022-08-16T19:36:32.041Z,19.30
2022-08-16T19:39:04.661Z,19.30
2022-08-16T19:41:35.662Z,19.30
2022-08-16T19:44:04.701Z,19.30
2022-08-16T19:46:33.095Z,19.20
2022-08-16T19:49:01.739Z,19.20
2022-08-16T19:51:31.674Z,19.20
2022-08-16T19:54:00.082Z,19.10
2022-08-16T19:56:28.625Z,19.20
2022-08-16T20:01:46.459Z,19.10
2022-08-16T20:04:14.939Z,19.00
2022-08-16T20:06:44.845Z,19.00
2022-08-16T20:09:15.203Z,18.90
2022-08-16T20:11:44.757Z,18.90
2022-08-16T20:14:24.921Z,18.90
2022-08-16T20:16:59.149Z,18.80
2022-08-16T20:19:28.400Z,18.80
2022-08-16T20:22:02.136Z,18.80
2022-08-16T20:24:34.852Z,18.80
2022-08-16T20:27:09.612Z,18.80
2022-08-16T20:29:39.568Z,18.70
2022-08-16T20:32:09.783Z,18.70
2022-08-16T20:34:38.233Z,18.60
2022-08-16T20:37:12.414Z,18.60
2022-08-16T20:39:44.256Z,18.60
2022-08-16T20:42:13.875Z,18.60
2022-08-16T20:44:43.136Z,18.50
2022-08-16T20:47:12.031Z,18.40
2022-08-16T20:49:40.604Z,18.40
2022-08-16T20:52:13.128Z,18.40
2022-08-16T20:54:41.868Z,18.40
2022-08-16T20:57:10.305Z,18.30
2022-08-16T20:59:39.931Z,18.30
2022-08-16T21:02:09.319Z,18.30
2022-08-16T21:04:38.018Z,18.30
2022-08-16T21:07:06.793Z,18.20
2022-08-16T21:09:38.022Z,18.30
2022-08-16T21:12:11.329Z,18.20
2022-08-16T21:14:43.195Z,18.20
2022-08-16T21:17:13.242Z,18.10
2022-08-16T21:19:41.840Z,18.10
2022-08-16T21:22:15.951Z,18.10
2022-08-16T21:24:46.580Z,18.00
2022-08-16T21:27:15.760Z,18.00
2022-08-16T21:29:46.478Z,17.90
2022-08-16T21:32:17.035Z,17.90
2022-08-16T21:34:45.401Z,17.90
2022-08-16T21:37:15.726Z,17.90
2022-08-16T21:39:45.884Z,17.90
2022-08-16T21:42:16.443Z,17.90
2022-08-16T21:44:45.511Z,17.80
2022-08-16T21:47:13.909Z,17.80
2022-08-16T21:49:42.415Z,17.80
2022-08-16T21:52:13.232Z,17.80
2022-08-16T21:54:57.815Z,17.80
2022-08-16T21:57:26.370Z,17.80
2022-08-16T22:00:03.696Z,17.90
2022-08-16T22:02:38.661Z,17.90
2022-08-16T22:05:07.929Z,17.80
2022-08-16T22:07:36.253Z,17.80
2022-08-16T22:11:05.651Z,17.70
2022-08-16T22:12:56.163Z,17.60
2022-08-16T22:15:25.952Z,17.60
2022-08-16T22:17:55.701Z,17.60
2022-08-16T22:20:25.196Z,17.50
2022-08-16T22:22:53.592Z,17.50
2022-08-16T22:25:23.386Z,17.50
2022-08-16T22:27:51.703Z,17.40
2022-08-16T22:30:20.244Z,17.40
2022-08-16T22:32:48.676Z,17.40
2022-08-16T22:35:17.516Z,17.40
2022-08-16T22:38:50.525Z,17.40
2022-08-16T22:40:35.607Z,17.40
2022-08-16T22:43:03.977Z,17.40
2022-08-16T22:45:32.766Z,17.40
2022-08-16T22:48:01.494Z,17.30
2022-08-16T22:50:30.542Z,17.30
2022-08-16T22:52:58.976Z,17.30
2022-08-16T22:55:28.352Z,17.30
2022-08-16T22:57:58.523Z,17.30
2022-08-16T23:00:31.100Z,17.30
2022-08-16T23:03:03.002Z,17.30
2022-08-16T23:05:33.697Z,17.30
2022-08-16T23:08:02.427Z,17.20
2022-08-16T23:10:31.463Z,17.30
2022-08-16T23:13:04.483Z,17.20
2022-08-16T23:15:40.249Z,17.20
2022-08-16T23:18:08.575Z,17.20
2022-08-16T23:20:38.072Z,17.20
2022-08-16T23:23:21.030Z,17.20
2022-08-16T23:25:54.974Z,17.10
2022-08-16T23:28:27.945Z,17.10
2022-08-16T23:30:57.627Z,17.10
2022-08-16T23:33:27.218Z,17.00
2022-08-16T23:35:58.209Z,17.00
2022-08-16T23:38:37.665Z,17.00
2022-08-16T23:41:11.324Z,17.00
2022-08-16T23:43:43.860Z,17.00
2022-08-16T23:46:17.010Z,17.00
2022-08-16T23:49:58.571Z,16.90
2022-08-16T23:51:34.573Z,16.90
2022-08-16T23:54:02.858Z,16.90
2022-08-16T23:56:37.051Z,16.80
2022-08-16T23:59:10.529Z,16.80
